createdAt,value
2018-06-12T00:00:19.230Z,15.70
2018-06-12T00:01:19.203Z,15.60
2018-06-12T00:02:19.188Z,15.70
2018-06-12T00:03:19.153Z,15.58
2018-06-12T00:04:19.138Z,15.59
2018-06-12T00:05:19.110Z,15.62
2018-06-12T00:06:19.089Z,15.56
2018-06-12T00:07:19.061Z,15.74
2018-06-12T00:08:19.040Z,15.55
2018-06-12T00:09:19.011Z,15.56
2018-06-12T00:10:18.994Z,15.59
2018-06-12T00:11:18.974Z,15.51
2018-06-12T00:12:18.938Z,15.45
2018-06-12T00:13:18.917Z,15.52
2018-06-12T00:14:18.894Z,15.52
2018-06-12T00:15:18.873Z,15.59
2018-06-12T00:16:18.836Z,15.52
2018-06-12T00:17:18.821Z,15.52
2018-06-12T00:18:18.793Z,15.52
2018-06-12T00:19:18.772Z,15.44
2018-06-12T00:20:18.740Z,15.47
2018-06-12T00:21:18.721Z,15.44
2018-06-12T00:22:18.696Z,15.40
2018-06-12T00:23:18.678Z,15.43
2018-06-12T00:24:18.649Z,15.47
2018-06-12T00:25:18.618Z,15.43
2018-06-12T00:26:18.597Z,15.41
2018-06-12T00:27:18.575Z,15.35
2018-06-12T00:28:18.545Z,15.27
2018-06-12T00:29:18.526Z,15.18
2018-06-12T00:30:18.498Z,15.26
2018-06-12T00:31:18.482Z,15.19
2018-06-12T00:32:18.455Z,15.20
2018-06-12T00:33:18.428Z,15.23
2018-06-12T00:34:18.401Z,15.19
2018-06-12T00:35:18.376Z,15.19
2018-06-12T00:36:18.357Z,15.13
2018-06-12T00:37:18.326Z,15.12
2018-06-12T00:38:18.304Z,15.16
2018-06-12T00:39:18.282Z,15.23
2018-06-12T00:40:18.251Z,15.15
2018-06-12T00:41:18.235Z,15.16
2018-06-12T00:42:18.206Z,15.13
2018-06-12T00:43:18.191Z,15.01
2018-06-12T00:44:18.161Z,15.04
2018-06-12T00:45:18.136Z,15.00
2018-06-12T00:46:18.103Z,15.00
2018-06-12T00:47:18.087Z,14.98
2018-06-12T00:48:18.055Z,15.04
2018-06-12T00:49:18.032Z,14.97
2018-06-12T00:50:18.009Z,15.00
2018-06-12T00:51:17.986Z,14.94
2018-06-12T00:52:17.957Z,14.90
2018-06-12T00:53:17.938Z,14.95
2018-06-12T00:54:17.907Z,14.83
2018-06-12T00:55:17.881Z,14.95
2018-06-12T00:56:17.864Z,14.90
2018-06-12T00:57:17.843Z,14.89
2018-06-12T00:58:17.813Z,14.94
2018-06-12T00:59:17.801Z,14.87
2018-06-12T01:00:17.770Z,14.86
2018-06-12T01:01:17.740Z,14.90
2018-06-12T01:02:17.713Z,14.93
2018-06-12T01:03:17.683Z,14.97
2018-06-12T01:04:17.658Z,14.90
2018-06-12T01:05:17.636Z,14.93
2018-06-12T01:06:17.613Z,14.90
2018-06-12T01:07:17.596Z,14.82
2018-06-12T01:08:17.560Z,14.77
2018-06-12T01:09:17.539Z,14.77
2018-06-12T01:10:17.516Z,14.79
2018-06-12T01:11:17.483Z,14.82
2018-06-12T01:12:17.470Z,14.79
2018-06-12T01:13:17.443Z,14.75
2018-06-12T01:14:17.416Z,14.79
2018-06-12T01:15:17.394Z,14.75
2018-06-12T01:16:17.373Z,14.74
2018-06-12T01:17:17.338Z,14.67
2018-06-12T01:18:17.312Z,14.75
2018-06-12T01:19:17.299Z,14.71
2018-06-12T01:20:17.276Z,14.70
2018-06-12T01:21:17.243Z,14.66
2018-06-12T01:22:17.214Z,14.60
2018-06-12T01:23:17.196Z,14.59
2018-06-12T01:24:17.173Z,14.52
2018-06-12T01:25:17.140Z,14.61
2018-06-12T01:26:17.120Z,14.61
2018-06-12T01:27:17.096Z,14.49
2018-06-12T01:28:17.066Z,14.52
2018-06-12T01:29:17.056Z,14.48
2018-06-12T01:30:17.022Z,14.51
2018-06-12T01:31:16.987Z,14.57
2018-06-12T01:32:16.966Z,14.59
2018-06-12T01:33:16.950Z,14.52
2018-06-12T01:34:16.915Z,14.59
2018-06-12T01:35:16.901Z,14.42
2018-06-12T01:36:16.864Z,14.49
2018-06-12T01:37:16.847Z,14.48
2018-06-12T01:38:16.815Z,14.49
2018-06-12T01:39:16.793Z,14.45
2018-06-12T01:40:16.771Z,14.41
2018-06-12T01:41:16.742Z,14.39
2018-06-12T01:42:16.720Z,14.30
2018-06-12T01:43:16.689Z,14.41
2018-06-12T01:44:16.675Z,14.38
2018-06-12T01:45:16.645Z,14.42
2018-06-12T01:46:16.616Z,14.42
2018-06-12T01:47:16.600Z,14.44
2018-06-12T01:48:16.573Z,14.44
2018-06-12T01:49:16.541Z,14.36
2018-06-12T01:50:16.523Z,14.45
2018-06-12T01:51:16.488Z,14.36
2018-06-12T01:52:16.474Z,14.39
2018-06-12T01:53:16.442Z,14.34
2018-06-12T01:54:16.417Z,14.41
2018-06-12T01:55:16.396Z,14.51
2018-06-12T01:56:16.372Z,14.46
2018-06-12T01:57:16.348Z,14.48
2018-06-12T01:58:16.316Z,14.44
2018-06-12T01:59:16.297Z,14.44
2018-06-12T02:00:16.265Z,14.36
2018-06-12T02:01:16.247Z,14.30
2018-06-12T02:02:16.216Z,14.26
2018-06-12T02:03:16.203Z,14.30
2018-06-12T02:04:16.173Z,14.30
2018-06-12T02:05:16.151Z,14.30
2018-06-12T02:06:16.119Z,14.31
2018-06-12T02:07:16.100Z,14.41
2018-06-12T02:08:16.066Z,14.42
2018-06-12T02:09:16.051Z,14.34
2018-06-12T02:13:19.933Z,14.39
2018-06-12T02:14:19.900Z,14.39
2018-06-12T02:16:12.809Z,14.33
2018-06-12T02:17:12.751Z,14.42
2018-06-12T02:18:12.734Z,14.39
2018-06-12T02:19:12.701Z,14.41
2018-06-12T02:20:12.682Z,14.33
2018-06-12T02:21:12.657Z,14.38
2018-06-12T02:22:12.630Z,14.45
2018-06-12T02:23:12.604Z,14.41
2018-06-12T02:24:12.581Z,14.27
2018-06-12T02:25:12.556Z,14.28
2018-06-12T02:26:12.528Z,14.28
2018-06-12T02:27:12.499Z,14.28
2018-06-12T02:28:12.483Z,14.28
2018-06-12T02:29:12.450Z,14.42
2018-06-12T02:30:12.438Z,14.31
2018-06-12T02:31:12.408Z,14.41
2018-06-12T02:32:12.379Z,14.31
2018-06-12T02:33:12.359Z,14.41
2018-06-12T02:34:12.334Z,14.34
2018-06-12T02:35:12.304Z,14.27
2018-06-12T02:36:12.284Z,14.33
2018-06-12T02:37:12.248Z,14.20
2018-06-12T02:38:12.229Z,14.21
2018-06-12T02:39:12.203Z,14.16
2018-06-12T02:40:12.180Z,14.26
2018-06-12T02:41:12.160Z,14.36
2018-06-12T02:42:12.133Z,14.26
2018-06-12T02:43:12.112Z,14.30
2018-06-12T02:44:12.075Z,14.34
2018-06-12T02:45:12.071Z,14.38
2018-06-12T02:46:12.025Z,14.41
2018-06-12T02:47:12.000Z,14.36
2018-06-12T02:48:11.984Z,14.36
2018-06-12T02:49:11.951Z,14.38
2018-06-12T02:50:11.934Z,14.39
2018-06-12T02:51:11.908Z,14.44
2018-06-12T02:52:11.875Z,14.44
2018-06-12T02:53:11.860Z,14.34
2018-06-12T02:54:11.827Z,14.44
2018-06-12T02:55:11.810Z,14.42
2018-06-12T02:56:11.780Z,14.38
2018-06-12T02:57:11.756Z,14.31
2018-06-12T02:58:11.739Z,14.34
2018-06-12T02:59:11.711Z,14.33
2018-06-12T03:00:11.679Z,14.28
2018-06-12T03:01:11.657Z,14.41
2018-06-12T03:02:11.628Z,14.33
2018-06-12T03:03:11.609Z,14.38
2018-06-12T03:04:11.576Z,14.36
2018-06-12T03:05:11.562Z,14.38
2018-06-12T03:06:11.527Z,14.42
2018-06-12T03:07:11.511Z,14.42
2018-06-12T03:08:11.490Z,14.45
2018-06-12T03:09:11.457Z,14.36
2018-06-12T03:10:11.430Z,14.39
2018-06-12T03:11:11.415Z,14.44
2018-06-12T03:12:11.382Z,14.38
2018-06-12T03:13:11.364Z,14.36
2018-06-12T03:14:11.328Z,14.46
2018-06-12T03:15:11.304Z,14.46
2018-06-12T03:16:11.283Z,14.49
2018-06-12T03:17:11.261Z,14.51
2018-06-12T03:18:11.228Z,14.42
2018-06-12T03:19:11.209Z,14.45
2018-06-12T03:20:11.188Z,14.41
2018-06-12T03:21:11.167Z,14.44
2018-06-12T03:22:11.132Z,14.44
2018-06-12T03:23:11.138Z,14.39
2018-06-12T03:24:11.092Z,14.34
2018-06-12T03:25:11.058Z,14.34
2018-06-12T03:26:11.030Z,14.36
2018-06-12T03:27:11.011Z,14.39
2018-06-12T03:28:10.990Z,14.31
2018-06-12T03:29:10.964Z,14.41
2018-06-12T03:30:11.822Z,14.41
2018-06-12T03:31:10.913Z,14.42
2018-06-12T03:32:10.883Z,14.46
2018-06-12T03:33:10.856Z,14.31
2018-06-12T03:34:10.840Z,14.44
2018-06-12T03:35:10.816Z,14.34
2018-06-12T03:36:10.784Z,14.33
2018-06-12T03:37:10.763Z,14.30
2018-06-12T03:38:10.739Z,14.30
2018-06-12T03:39:10.713Z,14.28
2018-06-12T03:40:10.688Z,14.38
2018-06-12T03:41:10.658Z,14.34
2018-06-12T03:42:10.641Z,14.28
2018-06-12T03:43:10.616Z,14.23
2018-06-12T03:44:10.583Z,14.20
2018-06-12T03:45:10.568Z,14.15
2018-06-12T03:46:10.538Z,14.21
2018-06-12T03:47:10.519Z,14.05
2018-06-12T03:48:10.494Z,14.02
2018-06-12T03:49:10.464Z,14.09
2018-06-12T03:50:10.442Z,13.99
2018-06-12T03:51:10.419Z,13.97
2018-06-12T03:52:10.387Z,14.01
2018-06-12T03:53:10.365Z,13.94
2018-06-12T03:54:10.343Z,14.06
2018-06-12T03:55:10.318Z,14.01
2018-06-12T03:56:10.287Z,13.90
2018-06-12T03:57:10.263Z,14.08
2018-06-12T03:58:10.233Z,14.09
2018-06-12T03:59:10.211Z,14.11
2018-06-12T04:00:10.191Z,14.11
2018-06-12T04:01:10.167Z,14.09
2018-06-12T04:02:10.138Z,14.19
2018-06-12T04:03:10.109Z,14.12
2018-06-12T04:04:10.098Z,14.16
2018-06-12T04:05:10.061Z,14.23
2018-06-12T04:06:10.048Z,14.21
2018-06-12T04:07:10.016Z,14.23
2018-06-12T04:08:09.991Z,14.31
2018-06-12T04:09:09.968Z,14.27
2018-06-12T04:10:09.942Z,14.33
2018-06-12T04:11:09.916Z,14.27
2018-06-12T04:12:09.899Z,14.28
2018-06-12T04:13:09.866Z,14.33
2018-06-12T04:14:09.840Z,14.31
2018-06-12T04:15:09.869Z,14.45
2018-06-12T04:16:09.786Z,14.39
2018-06-12T04:17:09.772Z,14.57
2018-06-12T04:18:09.737Z,14.45
2018-06-12T04:19:09.719Z,14.57
2018-06-12T04:20:09.698Z,14.53
2018-06-12T04:21:09.672Z,14.41
2018-06-12T04:22:09.638Z,14.44
2018-06-12T04:23:09.618Z,14.45
2018-06-12T04:24:09.591Z,14.44
2018-06-12T04:25:09.590Z,14.41
2018-06-12T04:26:09.540Z,14.38
2018-06-12T04:27:09.517Z,14.46
2018-06-12T04:28:09.493Z,14.46
2018-06-12T04:29:09.473Z,14.45
2018-06-12T04:30:09.439Z,14.28
2018-06-12T04:31:09.419Z,14.28
2018-06-12T04:32:09.397Z,14.27
2018-06-12T04:33:09.370Z,14.23
2018-06-12T04:34:09.348Z,14.20
2018-06-12T04:35:09.314Z,14.21
2018-06-12T04:36:09.298Z,14.28
2018-06-12T04:37:09.272Z,14.30
2018-06-12T04:38:09.246Z,14.39
2018-06-12T04:39:09.219Z,14.38
2018-06-12T04:40:09.198Z,14.41
2018-06-12T04:41:09.178Z,14.39
2018-06-12T04:42:09.146Z,14.44
2018-06-12T04:43:09.125Z,14.45
2018-06-12T04:44:09.095Z,14.44
2018-06-12T04:45:09.070Z,14.45
2018-06-12T04:46:09.046Z,14.52
2018-06-12T04:47:09.023Z,14.59
2018-06-12T04:48:08.994Z,14.59
2018-06-12T04:49:08.978Z,14.63
2018-06-12T04:50:08.942Z,14.60
2018-06-12T04:51:08.933Z,14.69
2018-06-12T04:52:08.894Z,14.79
2018-06-12T04:53:08.879Z,14.86
2018-06-12T04:54:08.853Z,14.86
2018-06-12T04:55:08.824Z,14.75
2018-06-12T04:56:08.798Z,14.80
2018-06-12T04:57:08.777Z,14.77
2018-06-12T04:58:08.752Z,14.79
2018-06-12T04:59:08.722Z,14.83
2018-06-12T05:00:08.699Z,14.61
2018-06-12T05:01:08.675Z,14.64
2018-06-12T05:02:08.655Z,14.71
2018-06-12T05:03:08.625Z,14.75
2018-06-12T05:04:08.615Z,14.83
2018-06-12T05:05:08.573Z,14.74
2018-06-12T05:06:08.554Z,14.75
2018-06-12T05:07:08.547Z,14.69
2018-06-12T05:08:08.503Z,14.67
2018-06-12T05:09:08.481Z,14.74
2018-06-12T05:10:08.458Z,14.74
2018-06-12T05:11:08.435Z,14.75
2018-06-12T05:12:08.404Z,14.77
2018-06-12T05:13:08.386Z,14.80
2018-06-12T05:14:08.355Z,14.75
2018-06-12T05:15:08.338Z,14.82
2018-06-12T05:16:08.313Z,14.74
2018-06-12T05:17:08.280Z,14.82
2018-06-12T05:18:08.263Z,14.85
2018-06-12T05:19:08.237Z,14.93
2018-06-12T05:20:08.207Z,14.86
2018-06-12T05:21:08.186Z,14.95
2018-06-12T05:22:08.158Z,15.00
2018-06-12T05:23:08.132Z,14.93
2018-06-12T05:24:08.113Z,14.87
2018-06-12T05:25:08.092Z,14.83
2018-06-12T05:26:08.065Z,14.79
2018-06-12T05:27:08.035Z,14.70
2018-06-12T05:28:08.021Z,14.70
2018-06-12T05:29:07.990Z,14.77
2018-06-12T05:30:07.963Z,14.80
2018-06-12T05:31:08.008Z,14.93
2018-06-12T05:32:07.917Z,14.83
2018-06-12T05:33:07.896Z,14.89
2018-06-12T05:34:07.862Z,14.95
2018-06-12T05:35:07.843Z,15.01
2018-06-12T05:36:07.817Z,14.93
2018-06-12T05:37:07.787Z,14.95
2018-06-12T05:38:07.773Z,14.98
2018-06-12T05:39:07.737Z,14.94
2018-06-12T05:40:07.727Z,15.01
2018-06-12T05:41:07.699Z,15.02
2018-06-12T05:42:07.666Z,15.08
2018-06-12T05:43:07.642Z,15.12
2018-06-12T05:44:07.623Z,15.19
2018-06-12T05:45:07.603Z,15.27
2018-06-12T05:46:07.573Z,15.20
2018-06-12T05:47:07.548Z,15.27
2018-06-12T05:48:07.526Z,15.33
2018-06-12T05:49:07.499Z,15.23
2018-06-12T05:50:07.479Z,15.31
2018-06-12T05:51:07.446Z,15.13
2018-06-12T05:52:07.429Z,15.08
2018-06-12T05:53:07.404Z,15.05
2018-06-12T05:54:07.380Z,15.13
2018-06-12T05:55:07.356Z,15.12
2018-06-12T05:56:07.322Z,15.18
2018-06-12T05:57:07.300Z,15.16
2018-06-12T05:58:07.279Z,15.12
2018-06-12T05:59:07.256Z,15.23
2018-06-12T06:00:07.227Z,15.19
2018-06-12T06:01:07.200Z,15.34
2018-06-12T06:02:07.186Z,15.34
2018-06-12T06:03:07.153Z,15.35
2018-06-12T06:04:07.125Z,15.38
2018-06-12T06:05:07.114Z,15.45
2018-06-12T06:06:07.084Z,15.43
2018-06-12T06:07:07.055Z,15.67
2018-06-12T06:08:07.040Z,15.68
2018-06-12T06:09:07.006Z,15.62
2018-06-12T06:10:06.997Z,15.59
2018-06-12T06:11:06.963Z,15.60
2018-06-12T06:12:06.938Z,15.60
2018-06-12T06:13:06.908Z,15.56
2018-06-12T06:14:06.896Z,15.63
2018-06-12T06:15:06.867Z,15.56
2018-06-12T06:16:06.844Z,15.56
2018-06-12T06:17:06.868Z,15.44
2018-06-12T06:18:06.787Z,15.38
2018-06-12T06:19:06.768Z,15.33
2018-06-12T06:20:06.743Z,15.16
2018-06-12T06:21:06.713Z,15.13
2018-06-12T06:22:06.702Z,15.18
2018-06-12T06:23:06.667Z,15.20
2018-06-12T06:24:06.644Z,15.13
2018-06-12T06:25:06.624Z,15.12
2018-06-12T06:26:06.594Z,15.27
2018-06-12T06:27:06.569Z,15.16
2018-06-12T06:28:06.548Z,15.27
2018-06-12T06:29:06.521Z,15.51
2018-06-12T06:30:06.501Z,15.59
2018-06-12T06:31:06.475Z,15.55
2018-06-12T06:32:06.447Z,15.59
2018-06-12T06:33:06.428Z,15.71
2018-06-12T06:34:06.408Z,15.77
2018-06-12T06:35:06.376Z,15.74
2018-06-12T06:36:06.349Z,15.71
2018-06-12T06:37:06.327Z,15.80
2018-06-12T06:38:06.311Z,15.80
2018-06-12T06:39:06.283Z,15.96
2018-06-12T06:40:06.253Z,15.91
2018-06-12T06:41:06.238Z,15.81
2018-06-12T06:42:06.212Z,15.86
2018-06-12T06:43:06.219Z,15.78
2018-06-12T06:44:06.169Z,15.91
2018-06-12T06:45:06.135Z,15.89
2018-06-12T06:46:06.108Z,15.98
2018-06-12T06:47:06.092Z,15.93
2018-06-12T06:48:06.063Z,15.98
2018-06-12T06:49:06.041Z,15.92
2018-06-12T06:50:06.009Z,15.95
2018-06-12T06:51:06.022Z,15.99
2018-06-12T06:52:05.970Z,15.91
2018-06-12T06:53:05.942Z,15.91
2018-06-12T06:54:05.914Z,15.92
2018-06-12T06:55:05.890Z,15.93
2018-06-12T06:56:05.869Z,16.06
2018-06-12T06:57:05.842Z,16.02
2018-06-12T06:58:05.818Z,16.13
2018-06-12T06:59:05.799Z,16.02
2018-06-12T07:00:05.772Z,16.02
2018-06-12T07:01:05.747Z,15.99
2018-06-12T07:02:05.727Z,16.04
2018-06-12T07:03:05.710Z,15.99
2018-06-12T07:04:05.692Z,16.06
2018-06-12T07:05:05.654Z,16.10
2018-06-12T07:06:05.632Z,16.26
2018-06-12T07:07:05.607Z,16.30
2018-06-12T07:08:05.580Z,16.40
2018-06-12T07:09:05.574Z,16.59
2018-06-12T07:10:05.527Z,16.66
2018-06-12T07:11:05.511Z,16.69
2018-06-12T07:12:05.479Z,16.69
2018-06-12T07:13:05.460Z,16.80
2018-06-12T07:14:05.439Z,16.76
2018-06-12T07:15:05.414Z,16.63
2018-06-12T07:16:05.385Z,16.84
2018-06-12T07:17:05.358Z,16.84
2018-06-12T07:18:05.341Z,16.85
2018-06-12T07:19:05.311Z,16.84
2018-06-12T07:20:05.295Z,17.00
2018-06-12T07:21:05.277Z,16.82
2018-06-12T07:22:05.239Z,16.85
2018-06-12T07:23:05.216Z,16.88
2018-06-12T07:24:05.191Z,17.12
2018-06-12T07:25:05.167Z,17.21
2018-06-12T07:26:05.144Z,17.17
2018-06-12T07:27:05.120Z,17.10
2018-06-12T07:28:05.099Z,16.92
2018-06-12T07:29:05.079Z,17.00
2018-06-12T07:30:05.069Z,17.09
2018-06-12T07:31:05.031Z,17.02
2018-06-12T07:32:05.005Z,16.99
2018-06-12T07:33:04.983Z,16.90
2018-06-12T07:34:04.958Z,16.87
2018-06-12T07:35:04.937Z,16.92
2018-06-12T07:36:04.908Z,16.97
2018-06-12T07:37:04.890Z,17.10
2018-06-12T07:38:04.861Z,17.02
2018-06-12T07:39:04.844Z,16.91
2018-06-12T07:40:04.809Z,16.80
2018-06-12T07:41:04.796Z,16.57
2018-06-12T07:42:04.762Z,16.44
2018-06-12T07:43:04.745Z,16.29
2018-06-12T07:44:04.725Z,16.57
2018-06-12T07:45:04.714Z,16.51
2018-06-12T07:46:04.671Z,16.39
2018-06-12T07:47:04.644Z,16.39
2018-06-12T07:48:04.631Z,16.45
2018-06-12T07:49:04.596Z,16.33
2018-06-12T07:50:04.582Z,16.42
2018-06-12T07:51:04.566Z,16.42
2018-06-12T07:52:04.531Z,16.51
2018-06-12T07:53:04.504Z,16.54
2018-06-12T07:54:04.486Z,16.62
2018-06-12T07:55:04.506Z,16.69
2018-06-12T07:56:04.437Z,16.52
2018-06-12T07:57:04.407Z,16.67
2018-06-12T07:58:04.390Z,16.85
2018-06-12T07:59:04.360Z,16.76
2018-06-12T08:00:04.337Z,16.59
2018-06-12T08:01:04.340Z,16.66
2018-06-12T08:02:04.292Z,16.81
2018-06-12T08:03:04.270Z,16.91
2018-06-12T08:04:04.237Z,16.87
2018-06-12T08:05:04.215Z,17.03
2018-06-12T08:06:04.196Z,16.94
2018-06-12T08:07:04.240Z,16.91
2018-06-12T08:08:04.144Z,17.02
2018-06-12T08:09:04.118Z,17.17
2018-06-12T08:10:04.105Z,17.20
2018-06-12T08:11:04.080Z,17.25
2018-06-12T08:12:04.074Z,17.32
2018-06-12T08:13:04.044Z,17.00
2018-06-12T08:14:04.003Z,16.90
2018-06-12T08:15:03.979Z,16.90
2018-06-12T08:16:03.953Z,16.88
2018-06-12T08:17:03.939Z,16.84
2018-06-12T08:18:03.943Z,16.73
2018-06-12T08:19:03.908Z,16.90
2018-06-12T08:20:03.864Z,17.07
2018-06-12T08:21:03.856Z,17.18
2018-06-12T08:22:03.810Z,17.13
2018-06-12T08:23:03.789Z,17.25
2018-06-12T08:24:03.767Z,17.35
2018-06-12T08:25:03.745Z,17.45
2018-06-12T08:26:03.713Z,17.43
2018-06-12T08:27:03.689Z,17.58
2018-06-12T08:28:03.674Z,17.62
2018-06-12T08:29:03.645Z,17.79
2018-06-12T08:30:03.760Z,17.74
2018-06-12T08:31:03.617Z,17.77
2018-06-12T08:32:03.581Z,17.57
2018-06-12T08:33:03.557Z,17.28
2018-06-12T08:34:03.526Z,17.22
2018-06-12T08:35:03.513Z,17.30
2018-06-12T08:36:03.483Z,17.10
2018-06-12T08:37:03.457Z,17.12
2018-06-12T08:38:03.441Z,17.09
2018-06-12T08:39:03.403Z,17.10
2018-06-12T08:40:03.407Z,17.24
2018-06-12T08:41:03.355Z,17.31
2018-06-12T08:42:03.340Z,17.42
2018-06-12T08:43:03.321Z,17.42
2018-06-12T08:44:03.310Z,17.65
2018-06-12T08:45:03.267Z,17.90
2018-06-12T08:46:03.244Z,18.10
2018-06-12T08:47:03.215Z,18.17
2018-06-12T08:48:03.200Z,17.86
2018-06-12T08:49:03.169Z,17.81
2018-06-12T08:50:03.152Z,17.49
2018-06-12T08:51:03.120Z,17.38
2018-06-12T08:52:03.105Z,17.42
2018-06-12T08:53:03.079Z,17.49
2018-06-12T08:54:03.062Z,17.45
2018-06-12T08:55:03.040Z,17.52
2018-06-12T08:56:03.007Z,17.49
2018-06-12T08:57:02.980Z,17.68
2018-06-12T08:58:02.962Z,17.77
2018-06-12T08:59:02.940Z,17.92
2018-06-12T09:00:02.910Z,17.90
2018-06-12T09:01:02.885Z,17.99
2018-06-12T09:02:02.870Z,18.06
2018-06-12T09:03:02.846Z,18.11
2018-06-12T09:04:02.825Z,18.44
2018-06-12T09:05:02.793Z,18.16
2018-06-12T09:06:02.776Z,18.49
2018-06-12T09:07:02.754Z,18.66
2018-06-12T09:08:02.722Z,18.79
2018-06-12T09:09:02.697Z,18.86
2018-06-12T09:10:02.679Z,18.99
2018-06-12T09:11:02.657Z,18.61
2018-06-12T09:12:02.629Z,18.54
2018-06-12T09:13:02.603Z,18.60
2018-06-12T09:14:02.590Z,18.60
2018-06-12T09:15:02.561Z,18.23
2018-06-12T09:16:02.533Z,18.38
2018-06-12T09:17:02.517Z,18.16
2018-06-12T09:18:02.496Z,17.96
2018-06-12T09:19:02.463Z,17.90
2018-06-12T09:20:02.448Z,17.69
2018-06-12T09:21:02.427Z,17.62
2018-06-12T09:22:02.398Z,17.77
2018-06-12T09:23:02.370Z,17.95
2018-06-12T09:24:02.358Z,17.69
2018-06-12T09:25:02.375Z,17.60
2018-06-12T09:26:02.304Z,17.63
2018-06-12T09:27:02.294Z,17.74
2018-06-12T09:28:02.262Z,17.79
2018-06-12T09:29:02.242Z,17.90
2018-06-12T09:30:02.208Z,17.81
2018-06-12T09:31:02.186Z,17.79
2018-06-12T09:32:02.163Z,17.76
2018-06-12T09:33:02.137Z,17.84
2018-06-12T09:34:02.122Z,17.62
2018-06-12T09:35:02.092Z,17.66
2018-06-12T09:36:02.109Z,17.68
2018-06-12T09:37:02.046Z,17.95
2018-06-12T09:38:02.026Z,17.86
2018-06-12T09:39:01.998Z,17.79
2018-06-12T09:40:01.978Z,17.77
2018-06-12T09:41:01.977Z,17.92
2018-06-12T09:42:01.942Z,17.79
2018-06-12T09:43:01.901Z,17.77
2018-06-12T09:44:01.879Z,17.94
2018-06-12T09:45:01.858Z,17.87
2018-06-12T09:46:01.841Z,17.94
2018-06-12T09:47:01.816Z,17.92
2018-06-12T09:48:01.798Z,18.10
2018-06-12T09:49:01.836Z,17.96
2018-06-12T09:50:01.744Z,17.87
2018-06-12T09:51:01.728Z,17.92
2018-06-12T09:52:01.696Z,17.99
2018-06-12T09:53:01.677Z,17.94
2018-06-12T09:54:01.652Z,17.83
2018-06-12T09:55:01.629Z,17.87
2018-06-12T09:56:01.598Z,17.77
2018-06-12T09:57:01.578Z,17.81
2018-06-12T09:58:01.569Z,18.02
2018-06-12T09:59:01.529Z,18.08
2018-06-12T10:00:01.513Z,18.42
2018-06-12T10:01:01.498Z,18.39
2018-06-12T10:02:01.463Z,18.63
2018-06-12T10:03:01.439Z,18.61
2018-06-12T10:04:01.412Z,18.71
2018-06-12T10:05:01.401Z,18.89
2018-06-12T10:06:01.364Z,18.86
2018-06-12T10:07:01.340Z,18.87
2018-06-12T10:08:01.350Z,18.86
2018-06-12T10:09:01.327Z,18.84
2018-06-12T10:10:01.279Z,18.59
2018-06-12T10:11:01.248Z,18.51
2018-06-12T10:12:01.232Z,18.57
2018-06-12T10:13:01.201Z,18.68
2018-06-12T10:14:01.187Z,18.71
2018-06-12T10:15:01.178Z,18.72
2018-06-12T10:16:01.132Z,18.76
2018-06-12T10:17:01.118Z,18.90
2018-06-12T10:18:01.090Z,18.89
2018-06-12T10:19:01.067Z,18.94
2018-06-12T10:20:01.042Z,19.13
2018-06-12T10:21:01.034Z,19.00
2018-06-12T10:22:01.008Z,18.97
2018-06-12T10:23:00.990Z,18.99
2018-06-12T10:24:00.947Z,18.96
2018-06-12T10:25:00.976Z,18.89
2018-06-12T10:26:00.907Z,18.96
2018-06-12T10:27:00.881Z,19.09
2018-06-12T10:28:00.862Z,18.99
2018-06-12T10:29:00.851Z,18.72
2018-06-12T10:30:00.810Z,18.53
2018-06-12T10:31:00.788Z,18.54
2018-06-12T10:32:00.784Z,18.75
2018-06-12T10:33:00.746Z,18.89
2018-06-12T10:34:00.720Z,18.76
2018-06-12T10:35:00.706Z,18.87
2018-06-12T10:36:00.681Z,18.96
2018-06-12T10:37:00.653Z,19.10
2018-06-12T10:38:00.628Z,18.78
2018-06-12T10:39:00.607Z,18.71
2018-06-12T10:40:00.598Z,18.74
2018-06-12T10:41:00.557Z,18.90
2018-06-12T10:42:00.545Z,19.00
2018-06-12T10:43:00.535Z,19.12
2018-06-12T10:44:00.493Z,19.12
2018-06-12T10:45:00.470Z,19.06
2018-06-12T10:46:00.455Z,19.00
2018-06-12T10:47:00.428Z,18.99
2018-06-12T10:48:00.397Z,18.94
2018-06-12T10:49:00.381Z,18.99
2018-06-12T10:50:00.417Z,18.74
2018-06-12T10:51:00.327Z,18.74
2018-06-12T10:52:00.308Z,18.87
2018-06-12T10:53:00.282Z,18.93
2018-06-12T10:54:00.270Z,19.06
2018-06-12T10:55:00.241Z,19.15
2018-06-12T10:56:00.220Z,18.84
2018-06-12T10:57:00.194Z,18.76
2018-06-12T10:58:00.169Z,18.89
2018-06-12T10:59:00.158Z,18.91
2018-06-12T11:00:00.127Z,18.87
2018-06-12T11:01:00.107Z,18.68
2018-06-12T11:02:00.085Z,18.61
2018-06-12T11:03:00.053Z,18.69
2018-06-12T11:04:00.041Z,18.90
2018-06-12T11:05:00.035Z,19.06
2018-06-12T11:05:59.995Z,19.09
2018-06-12T11:06:59.974Z,19.25
2018-06-12T11:07:59.945Z,19.32
2018-06-12T11:08:59.924Z,19.43
2018-06-12T11:09:59.905Z,19.40
2018-06-12T11:10:59.876Z,19.46
2018-06-12T11:11:59.852Z,19.52
2018-06-12T11:12:59.832Z,19.50
2018-06-12T11:13:59.814Z,19.60
2018-06-12T11:14:59.780Z,19.68
2018-06-12T11:15:59.766Z,19.75
2018-06-12T11:16:59.736Z,19.78
2018-06-12T11:17:59.722Z,19.78
2018-06-12T11:18:59.698Z,19.86
2018-06-12T11:19:59.669Z,20.01
2018-06-12T11:20:59.654Z,20.07
2018-06-12T11:21:59.624Z,19.86
2018-06-12T11:22:59.608Z,19.89
2018-06-12T11:23:59.582Z,19.71
2018-06-12T11:24:59.555Z,19.63
2018-06-12T11:25:59.537Z,19.70
2018-06-12T11:26:59.521Z,19.63
2018-06-12T11:27:59.495Z,19.56
2018-06-12T11:28:59.476Z,19.45
2018-06-12T11:29:59.450Z,19.34
2018-06-12T11:30:59.423Z,19.16
2018-06-12T11:31:59.468Z,19.19
2018-06-12T11:32:59.391Z,19.15
2018-06-12T11:33:59.358Z,19.13
2018-06-12T11:34:59.332Z,19.16
2018-06-12T11:35:59.319Z,18.97
2018-06-12T11:36:59.293Z,18.90
2018-06-12T11:37:59.269Z,18.76
2018-06-12T11:38:59.249Z,18.66
2018-06-12T11:39:59.221Z,18.57
2018-06-12T11:40:59.207Z,18.66
2018-06-12T11:41:59.234Z,18.71
2018-06-12T11:42:59.157Z,18.91
2018-06-12T11:43:59.137Z,18.87
2018-06-12T11:44:59.114Z,19.00
2018-06-12T11:45:59.091Z,18.99
2018-06-12T11:46:59.081Z,18.91
2018-06-12T11:47:59.052Z,18.86
2018-06-12T11:48:59.015Z,19.00
2018-06-12T11:49:59.003Z,18.93
2018-06-12T11:50:58.994Z,19.00
2018-06-12T11:51:58.950Z,19.16
2018-06-12T11:52:58.928Z,19.23
2018-06-12T11:53:58.977Z,19.17
2018-06-12T11:54:58.895Z,19.25
2018-06-12T11:55:58.865Z,19.30
2018-06-12T11:56:58.834Z,19.34
2018-06-12T11:57:58.822Z,19.32
2018-06-12T11:58:58.791Z,19.31
2018-06-12T11:59:58.771Z,19.38
2018-06-12T12:00:58.757Z,19.49
2018-06-12T12:01:58.721Z,19.31
2018-06-12T12:02:58.733Z,19.30
2018-06-12T12:03:58.681Z,19.06
2018-06-12T12:04:58.684Z,18.93
2018-06-12T12:05:58.631Z,18.94
2018-06-12T12:06:58.620Z,18.87
2018-06-12T12:07:58.593Z,18.87
2018-06-12T12:08:58.569Z,18.96
2018-06-12T12:09:58.541Z,19.00
2018-06-12T12:10:58.518Z,18.86
2018-06-12T12:11:58.517Z,18.84
2018-06-12T12:12:58.481Z,18.97
2018-06-12T12:13:58.453Z,18.99
2018-06-12T12:14:58.428Z,19.00
2018-06-12T12:15:58.412Z,19.06
2018-06-12T12:16:58.447Z,19.12
2018-06-12T12:17:58.368Z,19.34
2018-06-12T12:18:58.363Z,19.46
2018-06-12T12:19:58.321Z,19.55
2018-06-12T12:20:58.288Z,19.53
2018-06-12T12:21:58.276Z,19.45
2018-06-12T12:22:58.246Z,19.53
2018-06-12T12:23:58.223Z,19.60
2018-06-12T12:24:58.203Z,19.57
2018-06-12T12:25:58.179Z,19.67
2018-06-12T12:26:58.148Z,19.49
2018-06-12T12:27:58.135Z,19.56
2018-06-12T12:28:58.112Z,19.72
2018-06-12T12:29:58.093Z,19.60
2018-06-12T12:30:58.062Z,19.68
2018-06-12T12:31:58.045Z,19.85
2018-06-12T12:32:58.025Z,20.00
2018-06-12T12:33:57.999Z,20.16
2018-06-12T12:34:57.973Z,20.41
2018-06-12T12:35:57.956Z,20.19
2018-06-12T12:36:57.927Z,19.87
2018-06-12T12:37:57.908Z,19.92
2018-06-12T12:38:57.879Z,19.93
2018-06-12T12:39:57.867Z,19.75
2018-06-12T12:40:57.838Z,19.70
2018-06-12T12:41:57.823Z,19.79
2018-06-12T12:42:57.798Z,19.78
2018-06-12T12:43:57.769Z,19.80
2018-06-12T12:44:57.750Z,19.80
2018-06-12T12:45:57.729Z,19.78
2018-06-12T12:46:57.705Z,19.67
2018-06-12T12:47:57.683Z,19.64
2018-06-12T12:48:57.655Z,19.63
2018-06-12T12:49:57.649Z,19.35
2018-06-12T12:50:57.614Z,19.43
2018-06-12T12:51:57.590Z,19.42
2018-06-12T12:52:57.590Z,19.63
2018-06-12T12:53:57.551Z,19.57
2018-06-12T12:54:57.528Z,19.75
2018-06-12T12:55:57.496Z,19.71